sensor_id;sensor_type;location;lat;lon;timestamp;temperature;humidity
5956;DHT22;3004;48.080;11.600;2023-09-30T08:24:05;15.70;99.90
5956;DHT22;3004;48.080;11.600;2023-09-30T08:26:49;15.70;99.90
5956;DHT22;3004;48.080;11.600;2023-09-30T08:46:44;16.10;99.90
5956;DHT22;3004;48.080;11.600;2023-09-30T09:20:29;16.20;99.90
5956;DHT22;3004;48.080;11.600;2023-09-30T09:23:54;16.50;99.90
5956;DHT22;3004;48.080;11.600;2023-09-30T09:27:30;16.60;99.90
5956;DHT22;3004;48.080;11.600;2023-09-30T09:34:15;17.20;99.90
5956;DHT22;3004;48.080;11.600;2023-09-30T10:43:19;17.80;99.90
5956;DHT22;3004;48.080;11.600;2023-09-30T10:49:58;17.80;99.90
5956;DHT22;3004;48.080;11.600;2023-09-30T10:53:24;17.80;99.90
5956;DHT22;3004;48.080;11.600;2023-09-30T10:57:10;17.70;99.90
5956;DHT22;3004;48.080;11.600;2023-09-30T11:06:34;17.80;99.90
5956;DHT22;3004;48.080;11.600;2023-09-30T11:13:12;18.10;99.90
5956;DHT22;3004;48.080;11.600;2023-09-30T11:20:39;18.10;99.90
5956;DHT22;3004;48.080;11.600;2023-09-30T11:23:39;17.90;99.90
5956;DHT22;3004;48.080;11.600;2023-09-30T11:26:47;18.00;99.90
5956;DHT22;3004;48.080;11.600;2023-09-30T11:30:01;18.10;99.90
5956;DHT22;3004;48.080;11.600;2023-09-30T11:36:24;18.30;99.90
5956;DHT22;3004;48.080;11.600;2023-09-30T11:55:08;18.30;99.90
5956;DHT22;3004;48.080;11.600;2023-09-30T11:58:23;18.10;99.90
5956;DHT22;3004;48.080;11.600;2023-09-30T12:04:59;18.00;99.90
5956;DHT22;3004;48.080;11.600;2023-09-30T12:07:48;18.10;99.90
5956;DHT22;3004;48.080;11.600;2023-09-30T12:21:01;18.50;99.90
5956;DHT22;3004;48.080;11.600;2023-09-30T12:23:38;18.20;99.90
5956;DHT22;3004;48.080;11.600;2023-09-30T12:26:51;18.30;99.90
5956;DHT22;3004;48.080;11.600;2023-09-30T12:34:35;18.70;99.90
5956;DHT22;3004;48.080;11.600;2023-09-30T12:42:47;19.30;99.90
5956;DHT22;3004;48.080;11.600;2023-09-30T12:45:45;19.30;99.90
5956;DHT22;3004;48.080;11.600;2023-09-30T12:48:27;19.60;99.90
5956;DHT22;3004;48.080;11.600;2023-09-30T12:51:04;19.60;99.90
5956;DHT22;3004;48.080;11.600;2023-09-30T12:53:35;19.30;99.90
5956;DHT22;3004;48.080;11.600;2023-09-30T12:56:17;19.10;99.90
5956;DHT22;3004;48.080;11.600;2023-09-30T12:58:48;18.90;99.90
5956;DHT22;3004;48.080;11.600;2023-09-30T13:01:27;18.50;99.90
5956;DHT22;3004;48.080;11.600;2023-09-30T13:10:59;18.40;99.90
5956;DHT22;3004;48.080;11.600;2023-09-30T13:14:05;18.30;99.90
5956;DHT22;3004;48.080;11.600;2023-09-30T13:16:53;18.30;99.90
5956;DHT22;3004;48.080;11.600;2023-09-30T13:19:37;18.40;99.90
5956;DHT22;3004;48.080;11.600;2023-09-30T13:22:09;18.70;99.90
5956;DHT22;3004;48.080;11.600;2023-09-30T13:28:27;18.90;99.90
5956;DHT22;3004;48.080;11.600;2023-09-30T13:35:09;19.00;99.90
5956;DHT22;3004;48.080;11.600;2023-09-30T13:37:43;18.90;99.90
5956;DHT22;3004;48.080;11.600;2023-09-30T13:40:42;19.00;99.90
5956;DHT22;3004;48.080;11.600;2023-09-30T13:43:33;18.90;99.90
5956;DHT22;3004;48.080;11.600;2023-09-30T13:46:22;19.00;99.90
5956;DHT22;3004;48.080;11.600;2023-09-30T13:48:58;19.10;99.90
5956;DHT22;3004;48.080;11.600;2023-09-30T13:51:32;19.20;99.90
5956;DHT22;3004;48.080;11.600;2023-09-30T13:57:27;18.60;99.90
5956;DHT22;3004;48.080;11.600;2023-09-30T14:00:12;18.40;99.90
5956;DHT22;3004;48.080;11.600;2023-09-30T14:02:54;18.50;99.90
5956;DHT22;3004;48.080;11.600;2023-09-30T14:05:52;18.50;99.90
5956;DHT22;3004;48.080;11.600;2023-09-30T14:09:07;18.60;99.90
5956;DHT22;3004;48.080;11.600;2023-09-30T14:12:13;18.60;99.90
5956;DHT22;3004;48.080;11.600;2023-09-30T14:21:49;18.70;99.90
5956;DHT22;3004;48.080;11.600;2023-09-30T14:28:35;18.80;99.90
5956;DHT22;3004;48.080;11.600;2023-09-30T14:31:38;18.80;99.90
5956;DHT22;3004;48.080;11.600;2023-09-30T14:34:32;18.60;99.90
5956;DHT22;3004;48.080;11.600;2023-09-30T14:37:14;18.50;99.90
5956;DHT22;3004;48.080;11.600;2023-09-30T14:57:49;18.40;99.90
5956;DHT22;3004;48.080;11.600;2023-09-30T15:00:23;18.50;99.90
5956;DHT22;3004;48.080;11.600;2023-09-30T15:03:15;18.50;99.90
5956;DHT22;3004;48.080;11.600;2023-09-30T15:06:20;18.40;99.90
5956;DHT22;3004;48.080;11.600;2023-09-30T15:29:51;18.30;99.90
5956;DHT22;3004;48.080;11.600;2023-09-30T16:01:00;17.90;99.90
5956;DHT22;3004;48.080;11.600;2023-09-30T16:14:03;17.30;99.90
5956;DHT22;3004;48.080;11.600;2023-09-30T16:16:44;17.20;99.90
5956;DHT22;3004;48.080;11.600;2023-09-30T16:19:45;17.10;99.90
5956;DHT22;3004;48.080;11.600;2023-09-30T16:22:55;17.00;99.90
5956;DHT22;3004;48.080;11.600;2023-09-30T16:44:08;16.50;99.90
5956;DHT22;3004;48.080;11.600;2023-09-30T16:46:47;16.30;99.90
5956;DHT22;3004;48.080;11.600;2023-09-30T16:49:36;16.30;99.90
5956;DHT22;3004;48.080;11.600;2023-09-30T16:52:11;16.10;99.90
5956;DHT22;3004;48.080;11.600;2023-09-30T16:55:04;16.00;99.90
5956;DHT22;3004;48.080;11.600;2023-09-30T16:57:52;15.90;99.90
5956;DHT22;3004;48.080;11.600;2023-09-30T17:00:43;15.80;99.90
5956;DHT22;3004;48.080;11.600;2023-09-30T17:28:28;14.70;99.90
5956;DHT22;3004;48.080;11.600;2023-09-30T17:42:40;14.30;99.90
5956;DHT22;3004;48.080;11.600;2023-09-30T17:45:32;14.20;99.90
5956;DHT22;3004;48.080;11.600;2023-09-30T17:51:15;14.10;99.90
5956;DHT22;3004;48.080;11.600;2023-09-30T17:53:45;13.90;99.90
5956;DHT22;3004;48.080;11.600;2023-09-30T17:56:14;13.90;99.90
5956;DHT22;3004;48.080;11.600;2023-09-30T17:58:41;13.70;99.90
5956;DHT22;3004;48.080;11.600;2023-09-30T18:01:11;13.80;99.90
5956;DHT22;3004;48.080;11.600;2023-09-30T18:03:53;13.70;99.90
5956;DHT22;3004;48.080;11.600;2023-09-30T18:06:23;13.60;99.90
5956;DHT22;3004;48.080;11.600;2023-09-30T18:08:50;13.50;99.90
5956;DHT22;3004;48.080;11.600;2023-09-30T18:11:18;13.50;99.90
5956;DHT22;3004;48.080;11.600;2023-09-30T18:13:52;13.40;99.90
5956;DHT22;3004;48.080;11.600;2023-09-30T18:16:22;13.30;99.90
5956;DHT22;3004;48.080;11.600;2023-09-30T18:18:53;13.30;99.90
5956;DHT22;3004;48.080;11.600;2023-09-30T18:21:33;13.20;99.90
5956;DHT22;3004;48.080;11.600;2023-09-30T18:24:05;13.20;99.90
5956;DHT22;3004;48.080;11.600;2023-09-30T18:26:34;13.10;99.90
5956;DHT22;3004;48.080;11.600;2023-09-30T18:29:12;13.10;99.90
5956;DHT22;3004;48.080;11.600;2023-09-30T18:31:42;13.00;99.90
5956;DHT22;3004;48.080;11.600;2023-09-30T18:34:10;12.90;99.90
5956;DHT22;3004;48.080;11.600;2023-09-30T18:36:37;12.90;99.90
5956;DHT22;3004;48.080;11.600;2023-09-30T18:39:04;12.80;99.90
5956;DHT22;3004;48.080;11.600;2023-09-30T18:41:35;12.80;99.90
5956;DHT22;3004;48.080;11.600;2023-09-30T18:44:02;12.70;99.90
5956;DHT22;3004;48.080;11.600;2023-09-30T18:46:29;12.70;99.90
5956;DHT22;3004;48.080;11.600;2023-09-30T18:49:00;12.70;99.90
5956;DHT22;3004;48.080;11.600;2023-09-30T18:51:30;12.60;99.90
5956;DHT22;3004;48.080;11.600;2023-09-30T18:54:03;12.60;99.90
5956;DHT22;3004;48.080;11.600;2023-09-30T18:56:32;12.50;99.90
5956;DHT22;3004;48.080;11.600;2023-09-30T18:58:59;12.50;99.90
5956;DHT22;3004;48.080;11.600;2023-09-30T19:01:28;12.50;99.90
5956;DHT22;3004;48.080;11.600;2023-09-30T19:04:03;12.40;99.90
5956;DHT22;3004;48.080;11.600;2023-09-30T19:06:39;12.30;99.90
5956;DHT22;3004;48.080;11.600;2023-09-30T19:09:08;12.20;99.90
5956;DHT22;3004;48.080;11.600;2023-09-30T19:11:37;12.20;99.90
5956;DHT22;3004;48.080;11.600;2023-09-30T19:14:04;12.10;99.90
5956;DHT22;3004;48.080;11.600;2023-09-30T19:16:44;12.20;99.90
5956;DHT22;3004;48.080;11.600;2023-09-30T19:19:25;12.20;99.90
5956;DHT22;3004;48.080;11.600;2023-09-30T19:22:09;12.10;99.90
5956;DHT22;3004;48.080;11.600;2023-09-30T19:24:39;12.10;99.90
5956;DHT22;3004;48.080;11.600;2023-09-30T19:27:19;12.00;99.90
5956;DHT22;3004;48.080;11.600;2023-09-30T19:30:04;12.00;99.90
5956;DHT22;3004;48.080;11.600;2023-09-30T19:32:35;11.90;99.90
5956;DHT22;3004;48.080;11.600;2023-09-30T19:35:08;11.90;99.90
5956;DHT22;3004;48.080;11.600;2023-09-30T19:37:38;11.90;99.90
5956;DHT22;3004;48.080;11.600;2023-09-30T19:40:08;11.90;99.90
5956;DHT22;3004;48.080;11.600;2023-09-30T19:42:40;11.80;99.90
5956;DHT22;3004;48.080;11.600;2023-09-30T19:45:10;11.70;99.90
5956;DHT22;3004;48.080;11.600;2023-09-30T19:47:37;11.60;99.90
5956;DHT22;3004;48.080;11.600;2023-09-30T19:50:18;11.50;99.90
5956;DHT22;3004;48.080;11.600;2023-09-30T19:52:52;11.50;99.90
5956;DHT22;3004;48.080;11.600;2023-09-30T19:55:23;11.50;99.90
5956;DHT22;3004;48.080;11.600;2023-09-30T19:57:50;11.50;99.90
5956;DHT22;3004;48.080;11.600;2023-09-30T20:00:24;11.30;99.90
5956;DHT22;3004;48.080;11.600;2023-09-30T20:02:54;11.30;99.90
5956;DHT22;3004;48.080;11.600;2023-09-30T20:05:27;11.30;99.90
5956;DHT22;3004;48.080;11.600;2023-09-30T20:11:25;11.30;99.90
5956;DHT22;3004;48.080;11.600;2023-09-30T20:14:11;11.20;99.90
5956;DHT22;3004;48.080;11.600;2023-09-30T20:23:43;11.00;99.90
5956;DHT22;3004;48.080;11.600;2023-09-30T20:26:12;11.00;99.90
5956;DHT22;3004;48.080;11.600;2023-09-30T20:28:54;10.90;99.90
5956;DHT22;3004;48.080;11.600;2023-09-30T20:31:23;10.80;99.90
5956;DHT22;3004;48.080;11.600;2023-09-30T20:33:50;10.70;99.90
5956;DHT22;3004;48.080;11.600;2023-09-30T20:36:20;10.70;99.90
5956;DHT22;3004;48.080;11.600;2023-09-30T20:38:54;10.60;99.90
5956;DHT22;3004;48.080;11.600;2023-09-30T20:41:21;10.60;99.90
5956;DHT22;3004;48.080;11.600;2023-09-30T20:43:49;10.60;99.90
5956;DHT22;3004;48.080;11.600;2023-09-30T20:46:20;10.50;99.90
5956;DHT22;3004;48.080;11.600;2023-09-30T20:52:04;10.40;99.90
5956;DHT22;3004;48.080;11.600;2023-09-30T20:54:37;10.40;99.90
5956;DHT22;3004;48.080;11.600;2023-09-30T20:57:08;10.40;99.90
5956;DHT22;3004;48.080;11.600;2023-09-30T20:59:36;10.40;99.90
5956;DHT22;3004;48.080;11.600;2023-09-30T21:02:06;10.30;99.90
5956;DHT22;3004;48.080;11.600;2023-09-30T21:04:36;10.30;99.90
5956;DHT22;3004;48.080;11.600;2023-09-30T21:07:04;10.30;99.90
5956;DHT22;3004;48.080;11.600;2023-09-30T21:09:55;10.30;99.90
5956;DHT22;3004;48.080;11.600;2023-09-30T21:12:42;10.20;99.90
5956;DHT22;3004;48.080;11.600;2023-09-30T21:15:09;10.20;99.90
5956;DHT22;3004;48.080;11.600;2023-09-30T21:17:37;10.20;99.90
5956;DHT22;3004;48.080;11.600;2023-09-30T21:20:07;10.20;99.90
5956;DHT22;3004;48.080;11.600;2023-09-30T21:22:42;10.10;99.90
5956;DHT22;3004;48.080;11.600;2023-09-30T21:25:15;10.00;99.90
5956;DHT22;3004;48.080;11.600;2023-09-30T21:27:45;10.00;99.90
5956;DHT22;3004;48.080;11.600;2023-09-30T21:30:12;10.00;99.90
5956;DHT22;3004;48.080;11.600;2023-09-30T21:32:40;10.00;99.90
5956;DHT22;3004;48.080;11.600;2023-09-30T21:35:10;9.90;99.90
5956;DHT22;3004;48.080;11.600;2023-09-30T21:37:43;9.90;99.90
5956;DHT22;3004;48.080;11.600;2023-09-30T21:40:28;9.90;99.90
5956;DHT22;3004;48.080;11.600;2023-09-30T21:42:55;9.80;99.90
5956;DHT22;3004;48.080;11.600;2023-09-30T21:45:23;9.70;99.90
5956;DHT22;3004;48.080;11.600;2023-09-30T21:47:50;9.60;99.90
5956;DHT22;3004;48.080;11.600;2023-09-30T21:50:17;9.60;99.90
5956;DHT22;3004;48.080;11.600;2023-09-30T21:52:46;9.60;99.90
5956;DHT22;3004;48.080;11.600;2023-09-30T21:55:42;9.60;99.90
5956;DHT22;3004;48.080;11.600;2023-09-30T21:58:10;9.60;99.90
5956;DHT22;3004;48.080;11.600;2023-09-30T22:00:38;9.60;99.90
5956;DHT22;3004;48.080;11.600;2023-09-30T22:03:06;9.60;99.90
5956;DHT22;3004;48.080;11.600;2023-09-30T22:05:34;9.60;99.90
5956;DHT22;3004;48.080;11.600;2023-09-30T22:08:04;9.60;99.90
5956;DHT22;3004;48.080;11.600;2023-09-30T22:10:33;9.50;99.90
5956;DHT22;3004;48.080;11.600;2023-09-30T22:13:04;9.50;99.90
5956;DHT22;3004;48.080;11.600;2023-09-30T22:15:37;9.40;99.90
5956;DHT22;3004;48.080;11.600;2023-09-30T22:18:05;9.40;99.90
5956;DHT22;3004;48.080;11.600;2023-09-30T22:20:33;9.40;99.90
5956;DHT22;3004;48.080;11.600;2023-09-30T22:23:05;9.20;99.90
5956;DHT22;3004;48.080;11.600;2023-09-30T22:25:32;9.10;99.90
5956;DHT22;3004;48.080;11.600;2023-09-30T22:28:09;9.10;99.90
5956;DHT22;3004;48.080;11.600;2023-09-30T22:30:48;9.20;99.90
5956;DHT22;3004;48.080;11.600;2023-09-30T22:33:18;9.10;99.90
5956;DHT22;3004;48.080;11.600;2023-09-30T22:35:48;9.10;99.90
5956;DHT22;3004;48.080;11.600;2023-09-30T22:38:19;9.00;99.90
5956;DHT22;3004;48.080;11.600;2023-09-30T22:40:48;9.00;99.90
5956;DHT22;3004;48.080;11.600;2023-09-30T22:43:19;9.00;99.90
5956;DHT22;3004;48.080;11.600;2023-09-30T22:45:47;9.00;99.90
5956;DHT22;3004;48.080;11.600;2023-09-30T22:48:16;9.00;99.90
5956;DHT22;3004;48.080;11.600;2023-09-30T22:51:13;9.00;99.90
5956;DHT22;3004;48.080;11.600;2023-09-30T23:04:05;8.90;99.90
5956;DHT22;3004;48.080;11.600;2023-09-30T23:06:34;8.90;99.90
5956;DHT22;3004;48.080;11.600;2023-09-30T23:09:05;8.90;99.90
5956;DHT22;3004;48.080;11.600;2023-09-30T23:11:33;8.90;99.90
5956;DHT22;3004;48.080;11.600;2023-09-30T23:14:00;8.80;99.90
5956;DHT22;3004;48.080;11.600;2023-09-30T23:16:30;8.80;99.90
5956;DHT22;3004;48.080;11.600;2023-09-30T23:19:00;8.70;99.90
5956;DHT22;3004;48.080;11.600;2023-09-30T23:24:55;8.60;99.90
5956;DHT22;3004;48.080;11.600;2023-09-30T23:27:26;8.70;99.90
5956;DHT22;3004;48.080;11.600;2023-09-30T23:29:55;8.60;99.90
5956;DHT22;3004;48.080;11.600;2023-09-30T23:32:22;8.60;99.90
5956;DHT22;3004;48.080;11.600;2023-09-30T23:34:50;8.50;99.90
5956;DHT22;3004;48.080;11.600;2023-09-30T23:37:19;8.50;99.90
5956;DHT22;3004;48.080;11.600;2023-09-30T23:39:48;8.50;99.90
5956;DHT22;3004;48.080;11.600;2023-09-30T23:42:20;8.50;99.90
5956;DHT22;3004;48.080;11.600;2023-09-30T23:44:49;8.40;99.90
5956;DHT22;3004;48.080;11.600;2023-09-30T23:47:18;8.40;99.90
5956;DHT22;3004;48.080;11.600;2023-09-30T23:49:45;8.40;99.90
5956;DHT22;3004;48.080;11.600;2023-09-30T23:52:15;8.40;99.90
5956;DHT22;3004;48.080;11.600;2023-09-30T23:54:46;8.30;99.90
5956;DHT22;3004;48.080;11.600;2023-09-30T23:57:23;8.30;99.90
5956;DHT22;3004;48.080;11.600;2023-09-30T23:59:50;8.30;99.90
